sensor_id;sensor_type;location;lat;lon;timestamp;pressure;altitude;pressure_sealevel;temperature;humidity
73101;BME280;61288;53.446;-2.266;2023-07-13T00:00:46;100805.28;;;13.83;100.00
73101;BME280;61288;53.446;-2.266;2023-07-13T00:03:11;100807.06;;;13.82;100.00
73101;BME280;61288;53.446;-2.266;2023-07-13T00:05:39;100799.41;;;13.79;100.00
73101;BME280;61288;53.446;-2.266;2023-07-13T00:08:05;100789.06;;;13.78;100.00
73101;BME280;61288;53.446;-2.266;2023-07-13T00:10:31;100771.06;;;13.73;100.00
73101;BME280;61288;53.446;-2.266;2023-07-13T00:12:57;100601.91;;;13.71;100.00
73101;BME280;61288;53.446;-2.266;2023-07-13T00:15:25;100585.59;;;13.68;100.00
73101;BME280;61288;53.446;-2.266;2023-07-13T00:17:52;100557.13;;;13.65;100.00
73101;BME280;61288;53.446;-2.266;2023-07-13T00:20:18;100551.19;;;13.63;100.00
73101;BME280;61288;53.446;-2.266;2023-07-13T00:22:49;100532.19;;;13.61;100.00
73101;BME280;61288;53.446;-2.266;2023-07-13T00:25:15;100538.50;;;13.56;100.00
73101;BME280;61288;53.446;-2.266;2023-07-13T00:27:43;100533.47;;;13.53;100.00
73101;BME280;61288;53.446;-2.266;2023-07-13T00:30:12;100525.91;;;13.49;100.00
73101;BME280;61288;53.446;-2.266;2023-07-13T00:32:38;100523.41;;;13.47;100.00
73101;BME280;61288;53.446;-2.266;2023-07-13T00:35:04;100528.78;;;13.44;100.00
73101;BME280;61288;53.446;-2.266;2023-07-13T00:37:30;100527.88;;;13.45;100.00
73101;BME280;61288;53.446;-2.266;2023-07-13T00:39:55;100535.69;;;13.45;100.00
73101;BME280;61288;53.446;-2.266;2023-07-13T00:42:21;100521.91;;;13.43;100.00
73101;BME280;61288;53.446;-2.266;2023-07-13T00:46:08;100520.44;;;13.37;100.00
73101;BME280;61288;53.446;-2.266;2023-07-13T00:47:54;100520.50;;;13.36;100.00
73101;BME280;61288;53.446;-2.266;2023-07-13T00:50:22;100520.50;;;13.36;100.00
73101;BME280;61288;53.446;-2.266;2023-07-13T00:52:52;100452.03;;;13.35;100.00
73101;BME280;61288;53.446;-2.266;2023-07-13T00:55:20;100436.50;;;13.34;100.00
73101;BME280;61288;53.446;-2.266;2023-07-13T00:57:46;100429.59;;;13.33;100.00
73101;BME280;61288;53.446;-2.266;2023-07-13T01:00:12;100415.66;;;13.34;100.00
73101;BME280;61288;53.446;-2.266;2023-07-13T01:02:41;100407.97;;;13.32;100.00
73101;BME280;61288;53.446;-2.266;2023-07-13T01:05:16;100412.31;;;13.32;100.00
73101;BME280;61288;53.446;-2.266;2023-07-13T01:07:43;100414.84;;;13.33;100.00
73101;BME280;61288;53.446;-2.266;2023-07-13T01:10:12;100406.94;;;13.35;100.00
73101;BME280;61288;53.446;-2.266;2023-07-13T01:12:38;100412.16;;;13.35;100.00
73101;BME280;61288;53.446;-2.266;2023-07-13T01:15:06;100406.00;;;13.36;100.00
73101;BME280;61288;53.446;-2.266;2023-07-13T01:17:51;100359.28;;;13.34;100.00
73101;BME280;61288;53.446;-2.266;2023-07-13T01:20:16;100351.47;;;13.34;100.00
73101;BME280;61288;53.446;-2.266;2023-07-13T01:22:42;100347.94;;;13.35;100.00
73101;BME280;61288;53.446;-2.266;2023-07-13T01:25:08;100350.44;;;13.37;100.00
73101;BME280;61288;53.446;-2.266;2023-07-13T01:27:34;100353.91;;;13.37;100.00
73101;BME280;61288;53.446;-2.266;2023-07-13T01:30:00;100350.44;;;13.37;100.00
73101;BME280;61288;53.446;-2.266;2023-07-13T01:32:29;100351.28;;;13.37;100.00
73101;BME280;61288;53.446;-2.266;2023-07-13T01:34:56;100348.69;;;13.37;100.00
73101;BME280;61288;53.446;-2.266;2023-07-13T01:37:24;100357.59;;;13.33;100.00
73101;BME280;61288;53.446;-2.266;2023-07-13T01:39:49;100373.47;;;13.28;100.00
73101;BME280;61288;53.446;-2.266;2023-07-13T01:42:15;100383.88;;;13.28;100.00
73101;BME280;61288;53.446;-2.266;2023-07-13T01:44:41;100387.22;;;13.31;100.00
73101;BME280;61288;53.446;-2.266;2023-07-13T01:47:06;100387.97;;;13.33;100.00
73101;BME280;61288;53.446;-2.266;2023-07-13T01:49:35;100390.56;;;13.33;100.00
73101;BME280;61288;53.446;-2.266;2023-07-13T01:52:02;100404.34;;;13.35;100.00
73101;BME280;61288;53.446;-2.266;2023-07-13T01:54:28;100391.25;;;13.36;100.00
73101;BME280;61288;53.446;-2.266;2023-07-13T01:56:53;100394.78;;;13.35;100.00
73101;BME280;61288;53.446;-2.266;2023-07-13T01:59:19;100388.91;;;13.32;100.00
73101;BME280;61288;53.446;-2.266;2023-07-13T02:01:45;100387.91;;;13.34;100.00
73101;BME280;61288;53.446;-2.266;2023-07-13T02:04:11;100389.47;;;13.37;100.00
73101;BME280;61288;53.446;-2.266;2023-07-13T02:06:36;100384.94;;;13.40;100.00
73101;BME280;61288;53.446;-2.266;2023-07-13T02:09:02;100387.41;;;13.43;100.00
73101;BME280;61288;53.446;-2.266;2023-07-13T02:11:28;100387.41;;;13.43;100.00
73101;BME280;61288;53.446;-2.266;2023-07-13T02:13:59;100383.97;;;13.43;100.00
73101;BME280;61288;53.446;-2.266;2023-07-13T02:16:25;100387.44;;;13.42;100.00
73101;BME280;61288;53.446;-2.266;2023-07-13T02:18:50;100387.44;;;13.42;100.00
73101;BME280;61288;53.446;-2.266;2023-07-13T02:21:17;100384.94;;;13.40;100.00
73101;BME280;61288;53.446;-2.266;2023-07-13T02:23:43;100387.63;;;13.39;100.00
73101;BME280;61288;53.446;-2.266;2023-07-13T02:26:10;100392.75;;;13.40;100.00
73101;BME280;61288;53.446;-2.266;2023-07-13T02:28:35;100381.59;;;13.38;100.00
73101;BME280;61288;53.446;-2.266;2023-07-13T02:31:06;100392.19;;;13.35;100.00
73101;BME280;61288;53.446;-2.266;2023-07-13T02:33:31;100392.19;;;13.35;100.00
73101;BME280;61288;53.446;-2.266;2023-07-13T02:35:57;100363.56;;;13.35;100.00
73101;BME280;61288;53.446;-2.266;2023-07-13T02:38:22;100361.78;;;13.36;100.00
73101;BME280;61288;53.446;-2.266;2023-07-13T02:40:48;100352.47;;;13.32;100.00
73101;BME280;61288;53.446;-2.266;2023-07-13T02:43:13;100354.25;;;13.31;100.00
73101;BME280;61288;53.446;-2.266;2023-07-13T02:45:44;100357.84;;;13.28;100.00
73101;BME280;61288;53.446;-2.266;2023-07-13T02:48:10;100359.63;;;13.28;100.00
73101;BME280;61288;53.446;-2.266;2023-07-13T02:50:35;100348.38;;;13.27;100.00
73101;BME280;61288;53.446;-2.266;2023-07-13T02:53:01;100349.38;;;13.25;100.00
73101;BME280;61288;53.446;-2.266;2023-07-13T02:55:30;100345.28;;;13.21;100.00
73101;BME280;61288;53.446;-2.266;2023-07-13T02:57:55;100342.84;;;13.18;100.00
73101;BME280;61288;53.446;-2.266;2023-07-13T03:00:21;100344.81;;;13.14;100.00
73101;BME280;61288;53.446;-2.266;2023-07-13T03:02:46;100344.06;;;13.12;100.00
73101;BME280;61288;53.446;-2.266;2023-07-13T03:05:12;100342.47;;;13.09;100.00
73101;BME280;61288;53.446;-2.266;2023-07-13T03:07:38;100332.13;;;13.08;100.00
73101;BME280;61288;53.446;-2.266;2023-07-13T03:10:05;100337.34;;;13.08;100.00
73101;BME280;61288;53.446;-2.266;2023-07-13T03:12:32;100331.38;;;13.06;100.00
73101;BME280;61288;53.446;-2.266;2023-07-13T03:14:57;100332.13;;;13.08;100.00
73101;BME280;61288;53.446;-2.266;2023-07-13T03:17:23;100334.09;;;13.04;100.00
73101;BME280;61288;53.446;-2.266;2023-07-13T03:19:48;100332.41;;;13.03;100.00
73101;BME280;61288;53.446;-2.266;2023-07-13T03:22:17;100333.53;;;12.99;100.00
73101;BME280;61288;53.446;-2.266;2023-07-13T03:24:44;100329.13;;;12.99;100.00
73101;BME280;61288;53.446;-2.266;2023-07-13T03:27:10;100329.25;;;12.98;100.00
73101;BME280;61288;53.446;-2.266;2023-07-13T03:29:36;100331.84;;;12.98;100.00
73101;BME280;61288;53.446;-2.266;2023-07-13T03:32:01;100330.16;;;12.97;100.00
73101;BME280;61288;53.446;-2.266;2023-07-13T03:34:29;100318.16;;;12.94;100.00
73101;BME280;61288;53.446;-2.266;2023-07-13T03:36:54;100328.06;;;12.88;100.00
73101;BME280;61288;53.446;-2.266;2023-07-13T03:39:20;100327.41;;;12.84;100.00
73101;BME280;61288;53.446;-2.266;2023-07-13T03:41:47;100335.97;;;12.86;100.00
73101;BME280;61288;53.446;-2.266;2023-07-13T03:44:13;100335.97;;;12.86;100.00
73101;BME280;61288;53.446;-2.266;2023-07-13T03:46:38;100330.78;;;12.86;100.00
73101;BME280;61288;53.446;-2.266;2023-07-13T03:49:05;100332.13;;;12.77;100.00
73101;BME280;61288;53.446;-2.266;2023-07-13T03:51:30;100333.22;;;12.73;100.00
73101;BME280;61288;53.446;-2.266;2023-07-13T03:53:56;100332.53;;;12.69;100.00
73101;BME280;61288;53.446;-2.266;2023-07-13T03:56:22;100337.72;;;12.69;100.00
73101;BME280;61288;53.446;-2.266;2023-07-13T03:58:49;100335.31;;;12.66;100.00
73101;BME280;61288;53.446;-2.266;2023-07-13T04:01:18;100341.69;;;12.61;100.00
73101;BME280;61288;53.446;-2.266;2023-07-13T04:03:45;100337.50;;;12.58;100.00
73101;BME280;61288;53.446;-2.266;2023-07-13T04:06:23;100341.00;;;12.57;100.00
73101;BME280;61288;53.446;-2.266;2023-07-13T04:08:54;100331.72;;;12.53;100.00
73101;BME280;61288;53.446;-2.266;2023-07-13T04:11:22;100336.06;;;12.52;100.00
73101;BME280;61288;53.446;-2.266;2023-07-13T04:13:48;100332.63;;;12.52;100.00
73101;BME280;61288;53.446;-2.266;2023-07-13T04:16:16;100334.22;;;12.54;100.00
73101;BME280;61288;53.446;-2.266;2023-07-13T04:18:41;100336.81;;;12.54;100.00
73101;BME280;61288;53.446;-2.266;2023-07-13T04:21:07;100337.72;;;12.53;100.00
73101;BME280;61288;53.446;-2.266;2023-07-13T04:23:35;100341.25;;;12.52;100.00
73101;BME280;61288;53.446;-2.266;2023-07-13T04:26:00;100350.06;;;12.50;100.00
73101;BME280;61288;53.446;-2.266;2023-07-13T04:28:27;100344.28;;;12.45;100.00
73101;BME280;61288;53.446;-2.266;2023-07-13T04:30:53;100349.50;;;12.45;100.00
73101;BME280;61288;53.446;-2.266;2023-07-13T04:33:19;100357.34;;;12.43;100.00
73101;BME280;61288;53.446;-2.266;2023-07-13T04:35:51;100362.63;;;12.41;100.00
73101;BME280;61288;53.446;-2.266;2023-07-13T04:38:23;100355.69;;;12.42;100.00
73101;BME280;61288;53.446;-2.266;2023-07-13T04:40:50;100364.28;;;12.42;100.00
73101;BME280;61288;53.446;-2.266;2023-07-13T04:43:16;100359.25;;;12.39;100.00
73101;BME280;61288;53.446;-2.266;2023-07-13T04:45:42;100361.13;;;12.37;100.00
73101;BME280;61288;53.446;-2.266;2023-07-13T04:48:07;100359.44;;;12.36;100.00
73101;BME280;61288;53.446;-2.266;2023-07-13T04:50:36;100358.69;;;12.34;100.00
73101;BME280;61288;53.446;-2.266;2023-07-13T04:53:01;100357.84;;;12.34;100.00
73101;BME280;61288;53.446;-2.266;2023-07-13T04:55:27;100357.84;;;12.34;100.00
73101;BME280;61288;53.446;-2.266;2023-07-13T04:57:56;100359.78;;;12.30;100.00
73101;BME280;61288;53.446;-2.266;2023-07-13T05:00:23;100352.81;;;12.31;100.00
73101;BME280;61288;53.446;-2.266;2023-07-13T05:02:50;100354.34;;;12.35;100.00
73101;BME280;61288;53.446;-2.266;2023-07-13T05:05:16;100352.72;;;12.32;100.00
73101;BME280;61288;53.446;-2.266;2023-07-13T05:07:43;100357.09;;;12.32;100.00
73101;BME280;61288;53.446;-2.266;2023-07-13T05:10:09;100357.84;;;12.34;100.00
73101;BME280;61288;53.446;-2.266;2023-07-13T05:12:35;100363.88;;;12.34;100.00
73101;BME280;61288;53.446;-2.266;2023-07-13T05:15:01;100357.75;;;12.35;100.00
73101;BME280;61288;53.446;-2.266;2023-07-13T05:17:27;100351.75;;;12.35;100.00
73101;BME280;61288;53.446;-2.266;2023-07-13T05:19:54;100351.91;;;12.32;100.00
73101;BME280;61288;53.446;-2.266;2023-07-13T05:22:19;100353.81;;;12.28;100.00
73101;BME280;61288;53.446;-2.266;2023-07-13T05:24:45;100357.34;;;12.27;100.00
73101;BME280;61288;53.446;-2.266;2023-07-13T05:27:10;100359.19;;;12.25;100.00
73101;BME280;61288;53.446;-2.266;2023-07-13T05:29:36;100359.19;;;12.25;100.00
73101;BME280;61288;53.446;-2.266;2023-07-13T05:32:02;100366.28;;;12.21;100.00
73101;BME280;61288;53.446;-2.266;2023-07-13T05:34:29;100374.00;;;12.23;100.00
73101;BME280;61288;53.446;-2.266;2023-07-13T05:36:54;100374.78;;;12.25;100.00
73101;BME280;61288;53.446;-2.266;2023-07-13T05:39:20;100375.34;;;12.30;100.00
73101;BME280;61288;53.446;-2.266;2023-07-13T05:41:45;100374.53;;;12.30;100.00
73101;BME280;61288;53.446;-2.266;2023-07-13T05:44:11;100371.09;;;12.29;100.00
73101;BME280;61288;53.446;-2.266;2023-07-13T05:46:36;100378.97;;;12.27;100.00
73101;BME280;61288;53.446;-2.266;2023-07-13T05:49:02;100377.03;;;12.31;100.00
73101;BME280;61288;53.446;-2.266;2023-07-13T05:51:28;100380.31;;;12.35;100.00
73101;BME280;61288;53.446;-2.266;2023-07-13T05:53:54;100374.09;;;12.37;100.00
73101;BME280;61288;53.446;-2.266;2023-07-13T05:56:19;100382.41;;;12.44;100.00
73101;BME280;61288;53.446;-2.266;2023-07-13T05:58:45;100382.94;;;12.51;100.00
73101;BME280;61288;53.446;-2.266;2023-07-13T06:01:13;100382.78;;;12.54;100.00
73101;BME280;61288;53.446;-2.266;2023-07-13T06:03:40;100385.78;;;12.62;100.00
73101;BME280;61288;53.446;-2.266;2023-07-13T06:06:08;100379.31;;;12.69;100.00
73101;BME280;61288;53.446;-2.266;2023-07-13T06:08:34;100373.78;;;12.76;100.00
73101;BME280;61288;53.446;-2.266;2023-07-13T06:11:23;100361.41;;;12.81;100.00
73101;BME280;61288;53.446;-2.266;2023-07-13T06:13:49;100360.19;;;12.86;100.00
73101;BME280;61288;53.446;-2.266;2023-07-13T06:16:16;100358.44;;;12.87;100.00
73101;BME280;61288;53.446;-2.266;2023-07-13T06:18:42;100358.50;;;12.85;100.00
73101;BME280;61288;53.446;-2.266;2023-07-13T06:21:19;100352.91;;;12.93;100.00
73101;BME280;61288;53.446;-2.266;2023-07-13T06:23:47;100355.81;;;13.03;100.00
73101;BME280;61288;53.446;-2.266;2023-07-13T06:26:18;100346.00;;;13.08;100.00
73101;BME280;61288;53.446;-2.266;2023-07-13T06:28:44;100349.00;;;13.17;100.00
73101;BME280;61288;53.446;-2.266;2023-07-13T06:31:11;100350.31;;;13.24;100.00
73101;BME280;61288;53.446;-2.266;2023-07-13T06:33:37;100344.78;;;13.30;100.00
73101;BME280;61288;53.446;-2.266;2023-07-13T06:36:04;100334.19;;;13.33;100.00
73101;BME280;61288;53.446;-2.266;2023-07-13T06:38:30;100326.84;;;13.40;100.00
73101;BME280;61288;53.446;-2.266;2023-07-13T06:40:56;100322.72;;;13.52;100.00
73101;BME280;61288;53.446;-2.266;2023-07-13T06:43:22;100322.00;;;13.64;100.00
73101;BME280;61288;53.446;-2.266;2023-07-13T06:45:50;100315.38;;;13.73;100.00
73101;BME280;61288;53.446;-2.266;2023-07-13T06:48:17;100316.53;;;13.83;100.00
73101;BME280;61288;53.446;-2.266;2023-07-13T06:50:47;100297.25;;;13.86;100.00
73101;BME280;61288;53.446;-2.266;2023-07-13T06:53:14;100286.50;;;13.92;100.00
73101;BME280;61288;53.446;-2.266;2023-07-13T06:55:40;100276.63;;;13.97;100.00
73101;BME280;61288;53.446;-2.266;2023-07-13T06:58:08;100289.34;;;14.02;100.00
73101;BME280;61288;53.446;-2.266;2023-07-13T07:00:34;100286.53;;;14.05;100.00
73101;BME280;61288;53.446;-2.266;2023-07-13T07:02:59;100281.25;;;14.07;100.00
73101;BME280;61288;53.446;-2.266;2023-07-13T07:05:25;100293.25;;;14.09;100.00
73101;BME280;61288;53.446;-2.266;2023-07-13T07:07:52;100293.06;;;14.12;100.00
73101;BME280;61288;53.446;-2.266;2023-07-13T07:10:18;100307.56;;;14.17;100.00
73101;BME280;61288;53.446;-2.266;2023-07-13T07:12:44;100292.69;;;14.19;100.00
73101;BME280;61288;53.446;-2.266;2023-07-13T07:15:09;100291.75;;;14.20;100.00
73101;BME280;61288;53.446;-2.266;2023-07-13T07:17:35;100294.44;;;14.18;100.00
73101;BME280;61288;53.446;-2.266;2023-07-13T07:20:02;100306.44;;;14.21;100.00
73101;BME280;61288;53.446;-2.266;2023-07-13T07:22:29;100312.56;;;14.34;100.00
73101;BME280;61288;53.446;-2.266;2023-07-13T07:24:56;100301.25;;;14.48;100.00
73101;BME280;61288;53.446;-2.266;2023-07-13T07:27:21;100305.31;;;14.67;100.00
73101;BME280;61288;53.446;-2.266;2023-07-13T07:29:49;100291.84;;;14.87;100.00
73101;BME280;61288;53.446;-2.266;2023-07-13T07:32:15;100278.75;;;15.02;100.00
73101;BME280;61288;53.446;-2.266;2023-07-13T07:34:40;100266.75;;;15.12;100.00
73101;BME280;61288;53.446;-2.266;2023-07-13T07:37:06;100265.31;;;15.21;100.00
73101;BME280;61288;53.446;-2.266;2023-07-13T07:39:32;100269.78;;;15.19;100.00
73101;BME280;61288;53.446;-2.266;2023-07-13T07:41:58;100253.59;;;15.01;100.00
73101;BME280;61288;53.446;-2.266;2023-07-13T07:44:24;100251.69;;;14.90;100.00
73101;BME280;61288;53.446;-2.266;2023-07-13T07:46:49;100250.31;;;14.84;100.00
73101;BME280;61288;53.446;-2.266;2023-07-13T07:49:15;100260.94;;;14.81;100.00
73101;BME280;61288;53.446;-2.266;2023-07-13T07:51:41;100286.41;;;14.78;100.00
73101;BME280;61288;53.446;-2.266;2023-07-13T07:54:06;100310.63;;;14.80;100.00
73101;BME280;61288;53.446;-2.266;2023-07-13T07:56:32;100326.78;;;14.85;100.00
73101;BME280;61288;53.446;-2.266;2023-07-13T07:58:57;100315.63;;;14.83;100.00
73101;BME280;61288;53.446;-2.266;2023-07-13T08:01:23;100317.31;;;14.84;100.00
73101;BME280;61288;53.446;-2.266;2023-07-13T08:03:49;100301.84;;;14.81;100.00
73101;BME280;61288;53.446;-2.266;2023-07-13T08:06:14;100309.44;;;14.71;100.00
73101;BME280;61288;53.446;-2.266;2023-07-13T08:08:40;100326.06;;;14.68;100.00
73101;BME280;61288;53.446;-2.266;2023-07-13T08:11:07;100330.34;;;14.69;100.00
73101;BME280;61288;53.446;-2.266;2023-07-13T08:13:33;100321.13;;;14.78;100.00
73101;BME280;61288;53.446;-2.266;2023-07-13T08:15:59;100317.53;;;14.94;100.00
73101;BME280;61288;53.446;-2.266;2023-07-13T08:18:25;100314.84;;;15.08;100.00
73101;BME280;61288;53.446;-2.266;2023-07-13T08:20:50;100310.50;;;15.09;100.00
73101;BME280;61288;53.446;-2.266;2023-07-13T08:23:16;100318.19;;;15.10;100.00
73101;BME280;61288;53.446;-2.266;2023-07-13T08:25:42;100318.50;;;15.06;100.00
73101;BME280;61288;53.446;-2.266;2023-07-13T08:28:07;100328.41;;;15.00;100.00
73101;BME280;61288;53.446;-2.266;2023-07-13T08:30:33;100345.09;;;14.98;100.00
73101;BME280;61288;53.446;-2.266;2023-07-13T08:32:59;100360.09;;;14.94;100.00
73101;BME280;61288;53.446;-2.266;2023-07-13T08:35:24;100384.44;;;14.95;100.00
73101;BME280;61288;53.446;-2.266;2023-07-13T08:37:51;100404.50;;;15.07;100.00
73101;BME280;61288;53.446;-2.266;2023-07-13T08:40:21;100399.78;;;15.27;100.00
73101;BME280;61288;53.446;-2.266;2023-07-13T08:42:55;100402.97;;;15.45;100.00
73101;BME280;61288;53.446;-2.266;2023-07-13T08:45:29;100389.94;;;15.58;100.00
73101;BME280;61288;53.446;-2.266;2023-07-13T08:48:52;100372.78;;;15.80;100.00
73101;BME280;61288;53.446;-2.266;2023-07-13T08:51:31;100381.91;;;16.00;100.00
73101;BME280;61288;53.446;-2.266;2023-07-13T08:53:59;100398.22;;;16.16;100.00
73101;BME280;61288;53.446;-2.266;2023-07-13T08:56:28;100413.25;;;16.26;100.00
73101;BME280;61288;53.446;-2.266;2023-07-13T08:59:05;100424.56;;;16.26;100.00
73101;BME280;61288;53.446;-2.266;2023-07-13T09:04:23;100450.19;;;15.95;100.00
73101;BME280;61288;53.446;-2.266;2023-07-13T09:06:59;100459.44;;;15.86;100.00
73101;BME280;61288;53.446;-2.266;2023-07-13T09:10:21;100472.72;;;15.83;100.00
73101;BME280;61288;53.446;-2.266;2023-07-13T09:12:31;100480.34;;;15.86;100.00
73101;BME280;61288;53.446;-2.266;2023-07-13T09:15:03;100498.25;;;15.93;100.00
73101;BME280;61288;53.446;-2.266;2023-07-13T09:17:35;100502.75;;;15.91;100.00
73101;BME280;61288;53.446;-2.266;2023-07-13T09:20:22;100499.41;;;15.88;100.00
73101;BME280;61288;53.446;-2.266;2023-07-13T09:22:50;100501.25;;;15.86;100.00
73101;BME280;61288;53.446;-2.266;2023-07-13T09:25:24;100499.78;;;15.82;100.00
73101;BME280;61288;53.446;-2.266;2023-07-13T09:27:57;100506.66;;;15.83;100.00
73101;BME280;61288;53.446;-2.266;2023-07-13T09:30:34;100511.59;;;15.88;100.00
73101;BME280;61288;53.446;-2.266;2023-07-13T09:33:03;100520.31;;;16.01;100.00
73101;BME280;61288;53.446;-2.266;2023-07-13T09:35:30;100505.28;;;16.18;100.00
73101;BME280;61288;53.446;-2.266;2023-07-13T09:38:11;100492.84;;;16.48;100.00
73101;BME280;61288;53.446;-2.266;2023-07-13T09:43:18;100490.81;;;16.64;100.00
73101;BME280;61288;53.446;-2.266;2023-07-13T09:45:46;100507.75;;;16.71;100.00
73101;BME280;61288;53.446;-2.266;2023-07-13T09:48:16;100495.75;;;16.69;100.00
73101;BME280;61288;53.446;-2.266;2023-07-13T09:50:43;100504.34;;;16.58;100.00
73101;BME280;61288;53.446;-2.266;2023-07-13T09:53:19;100517.63;;;16.55;100.00
73101;BME280;61288;53.446;-2.266;2023-07-13T09:55:46;100523.06;;;16.65;100.00
73101;BME280;61288;53.446;-2.266;2023-07-13T09:58:17;100533.38;;;16.92;100.00
73101;BME280;61288;53.446;-2.266;2023-07-13T10:00:57;100530.03;;;17.16;100.00
73101;BME280;61288;53.446;-2.266;2023-07-13T10:03:27;100534.09;;;17.44;100.00
73101;BME280;61288;53.446;-2.266;2023-07-13T10:05:55;100559.00;;;17.74;100.00
73101;BME280;61288;53.446;-2.266;2023-07-13T10:08:29;100570.34;;;17.75;100.00
73101;BME280;61288;53.446;-2.266;2023-07-13T10:11:21;100609.03;;;17.71;100.00
73101;BME280;61288;53.446;-2.266;2023-07-13T10:16:16;100602.63;;;17.38;100.00
73101;BME280;61288;53.446;-2.266;2023-07-13T10:19:04;100605.72;;;17.19;100.00
73101;BME280;61288;53.446;-2.266;2023-07-13T10:21:39;100619.97;;;17.15;100.00
73101;BME280;61288;53.446;-2.266;2023-07-13T10:24:27;100616.22;;;17.06;100.00
73101;BME280;61288;53.446;-2.266;2023-07-13T10:27:16;100630.22;;;16.92;100.00
73101;BME280;61288;53.446;-2.266;2023-07-13T10:29:52;100638.28;;;16.89;100.00
73101;BME280;61288;53.446;-2.266;2023-07-13T10:32:21;100633.13;;;16.87;100.00
73101;BME280;61288;53.446;-2.266;2023-07-13T10:34:50;100632.53;;;16.84;100.00
73101;BME280;61288;53.446;-2.266;2023-07-13T10:37:26;100636.69;;;16.86;100.00
73101;BME280;61288;53.446;-2.266;2023-07-13T10:39:53;100644.78;;;17.09;100.00
73101;BME280;61288;53.446;-2.266;2023-07-13T10:42:29;100622.00;;;17.36;100.00
73101;BME280;61288;53.446;-2.266;2023-07-13T10:44:55;100629.84;;;17.49;100.00
73101;BME280;61288;53.446;-2.266;2023-07-13T10:47:25;100611.47;;;17.61;100.00
73101;BME280;61288;53.446;-2.266;2023-07-13T10:49:56;100611.19;;;17.78;100.00
73101;BME280;61288;53.446;-2.266;2023-07-13T10:52:42;100604.13;;;18.15;100.00
73101;BME280;61288;53.446;-2.266;2023-07-13T10:56:02;100564.59;;;18.30;100.00
73101;BME280;61288;53.446;-2.266;2023-07-13T10:58:38;100551.28;;;18.44;100.00
73101;BME280;61288;53.446;-2.266;2023-07-13T11:01:09;100522.16;;;18.59;100.00
73101;BME280;61288;53.446;-2.266;2023-07-13T11:06:29;100494.81;;;19.18;100.00
73101;BME280;61288;53.446;-2.266;2023-07-13T11:09:17;100490.03;;;19.12;100.00
73101;BME280;61288;53.446;-2.266;2023-07-13T11:11:46;100490.19;;;19.11;100.00
73101;BME280;61288;53.446;-2.266;2023-07-13T11:20:20;100479.31;;;19.48;100.00
73101;BME280;61288;53.446;-2.266;2023-07-13T11:22:52;100483.28;;;19.42;100.00
73101;BME280;61288;53.446;-2.266;2023-07-13T11:25:26;100482.63;;;19.29;100.00
73101;BME280;61288;53.446;-2.266;2023-07-13T11:30:39;100486.59;;;19.00;100.00
73101;BME280;61288;53.446;-2.266;2023-07-13T11:33:19;100486.72;;;18.87;100.00
73101;BME280;61288;53.446;-2.266;2023-07-13T11:35:49;100494.38;;;18.79;100.00
73101;BME280;61288;53.446;-2.266;2023-07-13T11:38:20;100494.38;;;18.68;100.00
73101;BME280;61288;53.446;-2.266;2023-07-13T11:40:50;100507.25;;;18.82;100.00
73101;BME280;61288;53.446;-2.266;2023-07-13T11:43:18;100491.97;;;18.87;100.00
73101;BME280;61288;53.446;-2.266;2023-07-13T11:45:49;100485.41;;;18.93;100.00
73101;BME280;61288;53.446;-2.266;2023-07-13T11:50:55;100484.09;;;19.10;100.00
73101;BME280;61288;53.446;-2.266;2023-07-13T11:53:27;100473.59;;;19.43;100.00
73101;BME280;61288;53.446;-2.266;2023-07-13T11:55:53;100462.44;;;19.51;100.00
73101;BME280;61288;53.446;-2.266;2023-07-13T11:58:23;100464.13;;;19.52;100.00
73101;BME280;61288;53.446;-2.266;2023-07-13T12:00:54;100467.69;;;19.51;100.00
73101;BME280;61288;53.446;-2.266;2023-07-13T12:03:22;100467.44;;;19.54;100.00
73101;BME280;61288;53.446;-2.266;2023-07-13T12:06:02;100463.38;;;19.61;100.00
73101;BME280;61288;53.446;-2.266;2023-07-13T12:08:30;100445.78;;;19.83;100.00
73101;BME280;61288;53.446;-2.266;2023-07-13T12:11:02;100459.69;;;20.06;100.00
73101;BME280;61288;53.446;-2.266;2023-07-13T12:13:36;100449.41;;;20.03;100.00
73101;BME280;61288;53.446;-2.266;2023-07-13T12:16:11;100449.47;;;19.91;100.00
73101;BME280;61288;53.446;-2.266;2023-07-13T12:18:38;100449.09;;;19.75;100.00
73101;BME280;61288;53.446;-2.266;2023-07-13T12:21:05;100457.00;;;19.63;100.00
73101;BME280;61288;53.446;-2.266;2023-07-13T12:23:34;100455.66;;;19.48;100.00
73101;BME280;61288;53.446;-2.266;2023-07-13T12:26:04;100457.75;;;19.33;100.00
73101;BME280;61288;53.446;-2.266;2023-07-13T12:28:52;100471.88;;;19.20;100.00
73101;BME280;61288;53.446;-2.266;2023-07-13T12:31:34;100461.41;;;19.09;100.00
73101;BME280;61288;53.446;-2.266;2023-07-13T12:36:36;100461.91;;;19.03;100.00
73101;BME280;61288;53.446;-2.266;2023-07-13T12:41:52;100466.16;;;19.27;100.00
73101;BME280;61288;53.446;-2.266;2023-07-13T12:44:26;100447.25;;;19.33;100.00
73101;BME280;61288;53.446;-2.266;2023-07-13T12:47:06;100446.41;;;19.32;100.00
73101;BME280;61288;53.446;-2.266;2023-07-13T12:49:41;100446.66;;;19.29;100.00
73101;BME280;61288;53.446;-2.266;2023-07-13T12:52:18;100445.25;;;19.25;100.00
73101;BME280;61288;53.446;-2.266;2023-07-13T12:55:03;100446.56;;;19.19;100.00
73101;BME280;61288;53.446;-2.266;2023-07-13T12:57:29;100465.28;;;19.26;100.00
73101;BME280;61288;53.446;-2.266;2023-07-13T12:59:55;100449.28;;;19.29;100.00
73101;BME280;61288;53.446;-2.266;2023-07-13T13:02:33;100448.22;;;19.20;100.00
73101;BME280;61288;53.446;-2.266;2023-07-13T13:05:02;100445.19;;;19.04;100.00
73101;BME280;61288;53.446;-2.266;2023-07-13T13:07:29;100450.94;;;18.98;100.00